createdAt,value
2018-01-10T00:00:38.634Z,99991.20
2018-01-10T00:01:41.106Z,99988.14
2018-01-10T00:02:43.631Z,99986.66
2018-01-10T00:03:46.087Z,99990.30
2018-01-10T00:04:48.564Z,99988.10
2018-01-10T00:05:51.023Z,99984.59
2018-01-10T00:06:53.496Z,99981.05
2018-01-10T00:07:55.963Z,99984.92
2018-01-10T00:08:58.450Z,99985.41
2018-01-10T00:10:00.924Z,99987.11
2018-01-10T00:11:03.389Z,99987.13
2018-01-10T00:12:05.854Z,99984.33
2018-01-10T00:13:08.328Z,99981.50
2018-01-10T00:14:10.809Z,99977.55
2018-01-10T00:15:13.280Z,99974.13
2018-01-10T00:16:15.749Z,99976.59
2018-01-10T00:17:18.226Z,99973.97
2018-01-10T00:18:20.690Z,99972.73
2018-01-10T00:19:23.165Z,99976.73
2018-01-10T00:20:25.638Z,99975.40
2018-01-10T00:21:28.100Z,99981.50
2018-01-10T00:22:30.570Z,99976.88
2018-01-10T00:23:33.045Z,99977.02
2018-01-10T00:24:35.569Z,99978.28
2018-01-10T00:25:38.043Z,99972.17
2018-01-10T00:26:40.520Z,99976.94
2018-01-10T00:27:42.994Z,99977.21
2018-01-10T00:28:45.460Z,99975.70
2018-01-10T00:29:47.957Z,99970.61
2018-01-10T00:30:50.450Z,99974.34
2018-01-10T00:31:52.925Z,99973.90
2018-01-10T00:32:55.405Z,99970.45
2018-01-10T00:33:57.865Z,99974.47
2018-01-10T00:35:00.352Z,99965.08
2018-01-10T00:36:02.829Z,99972.97
2018-01-10T00:37:05.286Z,99971.00
2018-01-10T00:38:08.616Z,99965.67
2018-01-10T00:39:11.070Z,99967.59
2018-01-10T00:40:13.530Z,99962.77
2018-01-10T00:41:15.987Z,99965.11
2018-01-10T00:42:18.457Z,99964.22
2018-01-10T00:43:20.919Z,99969.34
2018-01-10T00:44:23.392Z,99958.53
2018-01-10T00:45:25.864Z,99965.11
2018-01-10T00:46:28.340Z,99961.61
2018-01-10T00:47:30.813Z,99968.50
2018-01-10T00:48:33.278Z,99964.88
2018-01-10T00:49:35.746Z,99966.36
2018-01-10T00:50:38.216Z,99965.07
2018-01-10T00:51:40.697Z,99960.52
2018-01-10T00:52:43.172Z,99967.84
2018-01-10T00:53:45.646Z,99966.33
2018-01-10T00:54:48.103Z,99961.16
2018-01-10T00:55:50.574Z,99959.08
2018-01-10T00:56:53.051Z,99959.48
2018-01-10T00:57:55.510Z,99949.91
2018-01-10T00:58:57.984Z,99958.20
2018-01-10T01:00:00.454Z,99957.71
2018-01-10T01:01:02.933Z,99961.22
2018-01-10T01:02:05.409Z,99960.36
2018-01-10T01:03:07.882Z,99963.30
2018-01-10T01:04:10.355Z,99959.52
2018-01-10T01:05:12.828Z,99961.22
2018-01-10T01:06:15.301Z,99967.62
2018-01-10T01:07:17.777Z,99955.22
2018-01-10T01:08:20.249Z,99958.08
2018-01-10T01:09:22.729Z,99957.83
2018-01-10T01:10:25.190Z,99957.80
2018-01-10T01:11:27.654Z,99957.27
2018-01-10T01:12:30.124Z,99957.31
2018-01-10T01:13:32.602Z,99956.53
2018-01-10T01:14:35.081Z,99951.42
2018-01-10T01:15:37.558Z,99956.30
2018-01-10T01:16:40.039Z,99957.10
2018-01-10T01:17:42.984Z,99954.92
2018-01-10T01:18:46.185Z,99957.51
2018-01-10T01:19:48.861Z,99954.06
2018-01-10T01:20:51.322Z,99953.36
2018-01-10T01:21:53.778Z,99954.16
2018-01-10T01:22:56.243Z,99956.39
2018-01-10T01:23:58.736Z,99956.39
2018-01-10T01:25:01.192Z,99955.55
2018-01-10T01:26:03.653Z,99955.44
2018-01-10T01:27:06.114Z,99955.28
2018-01-10T01:28:08.576Z,99954.07
2018-01-10T01:29:11.042Z,99953.98
2018-01-10T01:30:13.504Z,99957.85
2018-01-10T01:31:15.970Z,99954.54
2018-01-10T01:32:18.460Z,99957.32
2018-01-10T01:33:20.932Z,99957.32
2018-01-10T01:34:23.412Z,99953.29
2018-01-10T01:35:25.878Z,99958.80
2018-01-10T01:36:28.343Z,99957.52
2018-01-10T01:37:30.798Z,99956.48
2018-01-10T01:38:33.254Z,99964.23
2018-01-10T01:39:35.727Z,99957.20
2018-01-10T01:40:38.218Z,99958.84
2018-01-10T01:41:40.684Z,99961.26
2018-01-10T01:42:43.175Z,99974.68
2018-01-10T01:43:45.648Z,99967.36
2018-01-10T01:44:48.118Z,99962.27
2018-01-10T01:45:50.593Z,99968.42
2018-01-10T01:46:53.054Z,99971.39
2018-01-10T01:47:55.524Z,99963.77
2018-01-10T01:48:57.990Z,99963.36
2018-01-10T01:50:00.446Z,99966.02
2018-01-10T01:51:02.920Z,99968.25
2018-01-10T01:52:05.404Z,99963.80
2018-01-10T01:53:07.900Z,99966.86
2018-01-10T01:54:10.354Z,99969.53
2018-01-10T01:55:12.828Z,99965.14
2018-01-10T01:56:15.287Z,99967.68
2018-01-10T01:57:17.746Z,99963.98
2018-01-10T01:58:20.219Z,99965.69
2018-01-10T01:59:22.677Z,99959.77
2018-01-10T02:00:25.133Z,99967.08
2018-01-10T02:01:27.590Z,99966.57
2018-01-10T02:02:30.060Z,99963.30
2018-01-10T02:03:32.539Z,99972.59
2018-01-10T02:04:35.017Z,99967.89
2018-01-10T02:05:37.474Z,99963.30
2018-01-10T02:06:39.944Z,99963.70
2018-01-10T02:07:42.412Z,99967.61
2018-01-10T02:08:44.892Z,99964.89
2018-01-10T02:09:47.368Z,99967.12
2018-01-10T02:10:49.836Z,99959.95
2018-01-10T02:11:52.294Z,99962.64
2018-01-10T02:12:54.781Z,99963.00
2018-01-10T02:13:57.240Z,99969.42
2018-01-10T02:14:59.694Z,99963.78
2018-01-10T02:16:02.168Z,99961.25
2018-01-10T02:17:04.641Z,99967.91
2018-01-10T02:18:07.671Z,99962.95
2018-01-10T02:19:10.150Z,99961.91
2018-01-10T02:20:12.608Z,99969.53
2018-01-10T02:21:15.068Z,99963.09
2018-01-10T02:22:17.540Z,99969.00
2018-01-10T02:23:20.016Z,99967.10
2018-01-10T02:24:22.497Z,99962.95
2018-01-10T02:25:24.958Z,99963.17
2018-01-10T02:26:27.424Z,99966.67
2018-01-10T02:27:29.908Z,99959.91
2018-01-10T02:28:32.371Z,99959.65
2018-01-10T02:29:34.848Z,99959.70
2018-01-10T02:30:37.319Z,99963.30
2018-01-10T02:31:39.797Z,99962.19
2018-01-10T02:32:42.266Z,99956.42
2018-01-10T02:33:44.741Z,99956.41
2018-01-10T02:34:47.201Z,99959.72
2018-01-10T02:35:49.684Z,99960.38
2018-01-10T02:36:52.142Z,99955.99
2018-01-10T02:37:54.598Z,99963.11
2018-01-10T02:38:57.085Z,99959.09
2018-01-10T02:39:59.556Z,99966.28
2018-01-10T02:41:02.044Z,99955.56
2018-01-10T02:42:04.521Z,99957.31
2018-01-10T02:43:06.989Z,99956.69
2018-01-10T02:44:09.456Z,99950.96
2018-01-10T02:45:11.919Z,99952.32
2018-01-10T02:46:14.386Z,99954.11
2018-01-10T02:47:16.841Z,99953.11
2018-01-10T02:48:19.297Z,99955.42
2018-01-10T02:49:21.773Z,99957.34
2018-01-10T02:50:24.237Z,99952.09
2018-01-10T02:51:26.703Z,99960.28
2018-01-10T02:52:29.162Z,99951.78
2018-01-10T02:53:31.637Z,99953.96
2018-01-10T02:54:34.116Z,99950.52
2018-01-10T02:55:36.574Z,99951.59
2018-01-10T02:56:39.034Z,99952.32
2018-01-10T02:57:41.508Z,99948.47
2018-01-10T02:58:43.966Z,99945.77
2018-01-10T02:59:46.448Z,99949.44
2018-01-10T03:00:48.906Z,99945.42
2018-01-10T03:01:51.377Z,99948.74
2018-01-10T03:02:53.846Z,99948.05
2018-01-10T03:03:56.326Z,99954.67
2018-01-10T03:04:58.799Z,99951.84
2018-01-10T03:06:01.272Z,99951.54
2018-01-10T03:07:03.726Z,99947.20
2018-01-10T03:08:06.211Z,99948.82
2018-01-10T03:09:08.684Z,99951.19
2018-01-10T03:10:11.156Z,99942.91
2018-01-10T03:11:13.656Z,99945.14
2018-01-10T03:12:16.121Z,99947.55
2018-01-10T03:13:18.578Z,99939.78
2018-01-10T03:14:21.030Z,99946.63
2018-01-10T03:15:23.496Z,99942.84
2018-01-10T03:16:25.978Z,99942.41
2018-01-10T03:17:28.449Z,99940.28
2018-01-10T03:18:30.923Z,99941.07
2018-01-10T03:19:33.410Z,99938.23
2018-01-10T03:20:35.870Z,99939.52
2018-01-10T03:21:38.334Z,99933.52
2018-01-10T03:22:40.804Z,99940.92
2018-01-10T03:23:43.280Z,99938.72
2018-01-10T03:24:45.738Z,99937.45
2018-01-10T03:25:48.193Z,99932.81
2018-01-10T03:26:50.647Z,99929.23
2018-01-10T03:27:53.102Z,99929.36
2018-01-10T03:28:55.568Z,99930.77
2018-01-10T03:29:58.030Z,99927.59
2018-01-10T03:31:00.506Z,99921.30
2018-01-10T03:32:02.963Z,99926.98
2018-01-10T03:33:05.437Z,99929.59
2018-01-10T03:34:07.921Z,99925.78
2018-01-10T03:35:10.373Z,99923.55
2018-01-10T03:36:12.845Z,99927.63
2018-01-10T03:37:15.298Z,99930.41
2018-01-10T03:38:17.770Z,99921.51
2018-01-10T03:39:20.230Z,99927.00
2018-01-10T03:40:22.701Z,99927.41
2018-01-10T03:41:25.153Z,99933.48
2018-01-10T03:42:27.620Z,99921.03
2018-01-10T03:43:30.097Z,99926.81
2018-01-10T03:44:32.557Z,99929.06
2018-01-10T03:45:35.027Z,99921.30
2018-01-10T03:46:37.490Z,99921.75
2018-01-10T03:47:39.938Z,99932.48
2018-01-10T03:48:42.390Z,99922.72
2018-01-10T03:49:44.843Z,99928.12
2018-01-10T03:50:47.316Z,99922.58
2018-01-10T03:51:49.779Z,99925.30
2018-01-10T03:52:52.252Z,99916.22
2018-01-10T03:53:54.709Z,99923.33
2018-01-10T03:54:57.180Z,99919.20
2018-01-10T03:55:59.648Z,99925.02
2018-01-10T03:57:02.112Z,99924.45
2018-01-10T03:58:04.570Z,99923.13
2018-01-10T03:59:07.038Z,99925.64
2018-01-10T04:00:09.603Z,99927.98
2018-01-10T04:01:12.076Z,99930.39
2018-01-10T04:02:14.548Z,99922.94
2018-01-10T04:03:17.658Z,99925.80
2018-01-10T04:04:20.132Z,99924.61
2018-01-10T04:05:22.605Z,99927.27
2018-01-10T04:06:25.076Z,99924.33
2018-01-10T04:07:27.548Z,99921.31
2018-01-10T04:08:30.003Z,99926.15
2018-01-10T04:09:32.462Z,99930.46
2018-01-10T04:10:34.936Z,99924.61
2018-01-10T04:11:37.390Z,99925.67
2018-01-10T04:12:39.850Z,99927.58
2018-01-10T04:13:42.320Z,99924.53
2018-01-10T04:14:44.790Z,99926.16
2018-01-10T04:15:47.260Z,99917.51
2018-01-10T04:16:49.710Z,99913.83
2018-01-10T04:17:52.165Z,99919.06
2018-01-10T04:18:54.720Z,99921.67
2018-01-10T04:19:57.175Z,99919.11
2018-01-10T04:20:59.641Z,99925.33
2018-01-10T04:22:02.086Z,99906.67
2018-01-10T04:23:04.560Z,99913.62
2018-01-10T04:24:07.022Z,99918.49
2018-01-10T04:25:09.474Z,99918.91
2018-01-10T04:26:11.935Z,99914.84
2018-01-10T04:27:14.386Z,99913.41
2018-01-10T04:28:16.834Z,99912.64
2018-01-10T04:29:19.346Z,99913.91
2018-01-10T04:30:21.786Z,99911.23
2018-01-10T04:31:24.246Z,99913.05
2018-01-10T04:32:26.708Z,99909.80
2018-01-10T04:33:29.172Z,99908.40
2018-01-10T04:34:31.632Z,99911.98
2018-01-10T04:35:34.100Z,99917.33
2018-01-10T04:36:36.572Z,99909.11
2018-01-10T04:37:39.039Z,99911.72
2018-01-10T04:38:41.492Z,99909.33
2018-01-10T04:39:43.943Z,99910.19
2018-01-10T04:40:46.390Z,99908.14
2018-01-10T04:41:48.853Z,99905.12
2018-01-10T04:42:51.406Z,99907.99
2018-01-10T04:43:53.850Z,99909.45
2018-01-10T04:44:56.309Z,99905.44
2018-01-10T04:45:58.766Z,99911.45
2018-01-10T04:47:01.232Z,99910.67
2018-01-10T04:48:03.686Z,99905.79
2018-01-10T04:49:06.141Z,99908.61
2018-01-10T04:50:08.593Z,99910.19
2018-01-10T04:51:11.042Z,99906.44
2018-01-10T04:52:13.509Z,99908.40
2018-01-10T04:53:16.028Z,99901.09
2018-01-10T04:54:18.486Z,99902.36
2018-01-10T04:55:20.941Z,99909.41
2018-01-10T04:56:23.394Z,99909.67
2018-01-10T04:57:25.864Z,99901.03
2018-01-10T04:58:28.322Z,99906.33
2018-01-10T04:59:30.786Z,99900.11
2018-01-10T05:00:33.248Z,99900.74
2018-01-10T05:01:35.732Z,99901.94
2018-01-10T05:02:38.186Z,99905.38
2018-01-10T05:03:40.660Z,99901.87
2018-01-10T05:04:43.128Z,99906.44
2018-01-10T05:05:45.604Z,99905.38
2018-01-10T05:06:48.061Z,99906.44
2018-01-10T05:07:50.514Z,99900.65
2018-01-10T05:08:52.984Z,99901.09
2018-01-10T05:09:55.434Z,99905.66
2018-01-10T05:10:57.899Z,99901.39
2018-01-10T05:12:00.356Z,99900.37
2018-01-10T05:13:02.833Z,99901.52
2018-01-10T05:14:05.297Z,99899.39
2018-01-10T05:15:07.764Z,99907.00
2018-01-10T05:16:10.229Z,99902.84
2018-01-10T05:17:12.690Z,99906.30
2018-01-10T05:18:15.160Z,99909.97
2018-01-10T05:19:17.672Z,99910.78
2018-01-10T05:20:20.118Z,99905.27
2018-01-10T05:21:22.585Z,99909.55
2018-01-10T05:22:25.049Z,99906.30
2018-01-10T05:23:27.516Z,99904.97
2018-01-10T05:24:29.969Z,99904.17
2018-01-10T05:25:32.426Z,99907.97
2018-01-10T05:26:34.892Z,99905.05
2018-01-10T05:27:37.355Z,99908.14
2018-01-10T05:28:39.820Z,99911.31
2018-01-10T05:29:42.288Z,99908.84
2018-01-10T05:30:44.738Z,99908.55
2018-01-10T05:31:47.186Z,99913.54
2018-01-10T05:32:49.652Z,99904.55
2018-01-10T05:33:52.102Z,99909.38
2018-01-10T05:34:54.545Z,99909.38
2018-01-10T05:35:57.016Z,99908.42
2018-01-10T05:36:59.480Z,99912.34
2018-01-10T05:38:01.954Z,99913.56
2018-01-10T05:39:04.421Z,99917.29
2018-01-10T05:40:06.870Z,99913.70
2018-01-10T05:41:09.339Z,99912.89
2018-01-10T05:42:11.838Z,99904.95
2018-01-10T05:43:14.290Z,99909.45
2018-01-10T05:44:16.764Z,99907.44
2018-01-10T05:45:19.218Z,99906.52
2018-01-10T05:46:21.688Z,99905.60
2018-01-10T05:47:24.138Z,99908.77
2018-01-10T05:49:59.960Z,99907.41
2018-01-10T05:51:02.422Z,99903.27
2018-01-10T05:52:04.915Z,99905.57
2018-01-10T05:53:07.389Z,99906.77
2018-01-10T05:54:09.850Z,99905.86
2018-01-10T05:55:12.312Z,99910.19
2018-01-10T05:56:14.781Z,99906.65
2018-01-10T05:57:17.252Z,99906.61
2018-01-10T05:58:19.707Z,99904.46
2018-01-10T05:59:22.166Z,99912.08
2018-01-10T06:00:24.765Z,99903.41
2018-01-10T06:01:27.222Z,99908.27
2018-01-10T06:02:29.717Z,99909.66
2018-01-10T06:03:32.170Z,99903.20
2018-01-10T06:04:34.680Z,99910.78
2018-01-10T06:05:37.270Z,99911.98
2018-01-10T06:06:39.762Z,99909.03
2018-01-10T06:07:42.265Z,99906.65
2018-01-10T06:08:44.736Z,99908.12
2018-01-10T06:09:47.194Z,99916.53
2018-01-10T06:10:49.651Z,99911.16
2018-01-10T06:11:52.120Z,99915.31
2018-01-10T06:12:54.608Z,99913.54
2018-01-10T06:13:57.070Z,99911.31
2018-01-10T06:14:59.541Z,99903.56
2018-01-10T06:16:02.013Z,99910.86
2018-01-10T06:17:04.486Z,99912.20
2018-01-10T06:18:07.446Z,99911.31
2018-01-10T06:19:09.914Z,99910.17
2018-01-10T06:20:12.373Z,99910.43
2018-01-10T06:21:14.822Z,99914.88
2018-01-10T06:22:17.316Z,99916.16
2018-01-10T06:23:19.813Z,99914.89
2018-01-10T06:24:22.277Z,99915.85
2018-01-10T06:25:24.745Z,99913.67
2018-01-10T06:26:27.257Z,99913.60
2018-01-10T06:27:29.702Z,99908.81
2018-01-10T06:28:32.229Z,99912.27
2018-01-10T06:29:34.695Z,99913.89
2018-01-10T06:30:37.184Z,99912.64
2018-01-10T06:31:39.634Z,99911.22
2018-01-10T06:32:42.090Z,99914.93
2018-01-10T06:33:44.572Z,99914.85
2018-01-10T06:34:47.050Z,99920.61
2018-01-10T06:35:49.521Z,99915.92
2018-01-10T06:36:52.010Z,99915.19
2018-01-10T06:37:54.456Z,99915.84
2018-01-10T06:38:56.934Z,99919.63
2018-01-10T06:39:59.458Z,99917.30
2018-01-10T06:41:01.888Z,99923.58
2018-01-10T06:42:04.342Z,99919.12
2018-01-10T06:43:06.795Z,99924.48
2018-01-10T06:44:09.266Z,99923.50
2018-01-10T06:45:11.736Z,99925.09
2018-01-10T06:46:14.200Z,99925.71
2018-01-10T06:47:16.668Z,99926.83
2018-01-10T06:48:19.139Z,99928.77
2018-01-10T06:49:21.705Z,99922.24
2018-01-10T06:50:24.170Z,99927.41
2018-01-10T06:51:26.632Z,99926.83
2018-01-10T06:52:29.096Z,99922.97
2018-01-10T06:53:31.560Z,99921.66
2018-01-10T06:54:34.045Z,99930.16
2018-01-10T06:55:36.565Z,99929.05
2018-01-10T06:56:39.014Z,99922.56
2018-01-10T06:57:41.466Z,99928.84
2018-01-10T06:58:43.928Z,99933.81
2018-01-10T06:59:46.414Z,99926.03
2018-01-10T07:00:48.964Z,99935.14
2018-01-10T07:01:51.424Z,99929.23
2018-01-10T07:02:53.880Z,99929.81
2018-01-10T07:03:56.345Z,99929.10
2018-01-10T07:04:58.860Z,99927.97
2018-01-10T07:06:01.874Z,99928.27
2018-01-10T07:07:04.327Z,99924.61
2018-01-10T07:08:06.801Z,99926.27
2018-01-10T07:09:09.266Z,99923.96
2018-01-10T07:10:11.814Z,99928.95
2018-01-10T07:11:14.258Z,99926.34
2018-01-10T07:12:16.708Z,99927.20
2018-01-10T07:13:19.168Z,99932.97
2018-01-10T07:14:21.618Z,99932.55
2018-01-10T07:15:24.086Z,99927.61
2018-01-10T07:16:26.586Z,99929.68
2018-01-10T07:17:29.144Z,99928.49
2018-01-10T07:18:31.592Z,99930.11
2018-01-10T07:19:34.165Z,99931.78
2018-01-10T07:20:36.716Z,99934.95
2018-01-10T07:21:39.157Z,99934.55
2018-01-10T07:22:41.620Z,99931.44
2018-01-10T07:23:44.074Z,99927.66
2018-01-10T07:24:46.529Z,99928.09
2018-01-10T07:25:48.987Z,99941.97
2018-01-10T07:26:51.468Z,99938.27
2018-01-10T07:27:53.930Z,99931.78
2018-01-10T07:28:56.372Z,99938.14
2018-01-10T07:29:58.840Z,99936.37
2018-01-10T07:31:01.312Z,99939.26
2018-01-10T07:32:03.762Z,99941.44
2018-01-10T07:33:06.237Z,99943.06
2018-01-10T07:34:08.701Z,99944.25
2018-01-10T07:35:11.154Z,99942.50
2018-01-10T07:36:13.613Z,99938.65
2018-01-10T07:37:16.058Z,99940.39
2018-01-10T07:38:18.503Z,99946.09
2018-01-10T07:39:20.968Z,99943.48
2018-01-10T07:40:23.427Z,99940.37
2018-01-10T07:41:25.882Z,99943.79
2018-01-10T07:42:28.343Z,99947.92
2018-01-10T07:43:30.804Z,99941.52
2018-01-10T07:44:33.254Z,99943.77
2018-01-10T07:45:35.708Z,99945.22
2018-01-10T07:46:38.172Z,99948.69
2018-01-10T07:47:40.635Z,99940.15
2018-01-10T07:48:43.125Z,99947.36
2018-01-10T07:49:45.566Z,99948.25
2018-01-10T07:50:48.017Z,99941.77
2018-01-10T07:51:50.485Z,99956.61
2018-01-10T07:52:52.955Z,99948.55
2018-01-10T07:53:55.413Z,99946.57
2018-01-10T07:54:57.875Z,99953.63
2018-01-10T07:56:00.318Z,99952.75
2018-01-10T07:57:02.762Z,99962.11
2018-01-10T07:58:05.232Z,99955.22
2018-01-10T07:59:07.685Z,99954.23
2018-01-10T08:00:10.130Z,99962.23
2018-01-10T08:01:12.592Z,99964.36
2018-01-10T08:02:15.054Z,99968.31
2018-01-10T08:03:17.516Z,99961.75
2018-01-10T08:04:19.963Z,99968.67
2018-01-10T08:05:22.409Z,99963.37
2018-01-10T08:06:24.868Z,99969.52
2018-01-10T08:07:27.320Z,99967.11
2018-01-10T08:08:29.784Z,99966.31
2018-01-10T08:09:32.225Z,99970.37
2018-01-10T08:10:34.674Z,99969.08
2018-01-10T08:11:37.135Z,99965.58
2018-01-10T08:12:39.596Z,99966.77
2018-01-10T08:13:42.046Z,99972.27
2018-01-10T08:14:44.490Z,99968.30
2018-01-10T08:15:46.938Z,99970.52
2018-01-10T08:16:49.400Z,99978.77
2018-01-10T08:17:51.850Z,99969.53
2018-01-10T08:18:54.302Z,99978.84
2018-01-10T08:19:56.763Z,99979.31
2018-01-10T08:20:59.211Z,99972.14
2018-01-10T08:22:01.666Z,99977.56
2018-01-10T08:23:04.130Z,99975.96
2018-01-10T08:24:06.578Z,99964.03
2018-01-10T08:25:09.033Z,99980.98
2018-01-10T08:26:11.512Z,99984.35
2018-01-10T08:27:13.962Z,99980.07
2018-01-10T08:28:16.413Z,99969.66
2018-01-10T08:29:18.876Z,99973.03
2018-01-10T08:30:21.372Z,99975.51
2018-01-10T08:31:23.804Z,99976.93
2018-01-10T08:32:26.285Z,99977.23
2018-01-10T08:33:28.744Z,99972.82
2018-01-10T08:34:31.207Z,99973.89
2018-01-10T08:35:33.654Z,99974.42
2018-01-10T08:36:36.113Z,99978.94
2018-01-10T08:37:38.612Z,99977.94
2018-01-10T08:38:41.062Z,99975.77
2018-01-10T08:39:43.528Z,99977.11
2018-01-10T08:40:45.978Z,99979.33
2018-01-10T08:41:48.444Z,99973.76
2018-01-10T08:42:50.894Z,99975.86
2018-01-10T08:43:53.342Z,99982.49
2018-01-10T08:44:55.799Z,99983.66
2018-01-10T08:45:58.264Z,99985.28
2018-01-10T08:47:00.724Z,99986.31
2018-01-10T08:48:03.189Z,99984.34
2018-01-10T08:49:05.634Z,99984.06
2018-01-10T08:50:08.099Z,99981.69
2018-01-10T08:51:10.542Z,99984.30
2018-01-10T08:52:13.001Z,99982.64
2018-01-10T08:53:15.465Z,99980.85
2018-01-10T08:54:17.918Z,99985.48
2018-01-10T08:55:20.384Z,99982.80
2018-01-10T08:56:22.848Z,99983.98
2018-01-10T08:57:25.304Z,99986.61
2018-01-10T08:58:27.746Z,99986.28
2018-01-10T08:59:30.212Z,99991.34
2018-01-10T09:00:32.680Z,99987.48
2018-01-10T09:01:35.147Z,99985.83
2018-01-10T09:02:37.598Z,99994.80
2018-01-10T09:03:40.051Z,99983.88
2018-01-10T09:04:42.568Z,99984.00
2018-01-10T09:05:45.036Z,99988.73
2018-01-10T09:06:47.497Z,99991.70
2018-01-10T09:07:50.023Z,99987.34
2018-01-10T09:08:52.438Z,99982.17
2018-01-10T09:09:54.903Z,99983.80
2018-01-10T09:10:57.350Z,99980.78
2018-01-10T09:11:59.813Z,99976.31
2018-01-10T09:13:02.272Z,99979.06
2018-01-10T09:14:04.742Z,99979.70
2018-01-10T09:15:07.213Z,99984.55
2018-01-10T09:16:09.686Z,99979.42
2018-01-10T09:17:12.151Z,99983.30
2018-01-10T09:18:14.612Z,99983.30
2018-01-10T09:19:17.061Z,99984.89
2018-01-10T09:20:19.524Z,99990.05
2018-01-10T09:21:21.972Z,99981.09
2018-01-10T09:22:24.437Z,99984.89
2018-01-10T09:23:26.886Z,99980.73
2018-01-10T09:24:29.344Z,99978.66
2018-01-10T09:25:31.823Z,99985.73
2018-01-10T09:26:34.289Z,99982.23
2018-01-10T09:27:36.753Z,99989.28
2018-01-10T09:28:39.194Z,99991.16
2018-01-10T09:29:41.657Z,99986.31
2018-01-10T09:30:44.098Z,99988.13
2018-01-10T09:31:46.548Z,99987.78
2018-01-10T09:32:49.009Z,99984.08
2018-01-10T09:33:51.496Z,99988.63
2018-01-10T09:34:53.946Z,99984.41
2018-01-10T09:35:56.398Z,99983.93
2018-01-10T09:36:58.886Z,99986.38
2018-01-10T09:38:01.357Z,99987.02
2018-01-10T09:39:03.819Z,99989.22
2018-01-10T09:40:06.304Z,99977.68
2018-01-10T09:41:08.745Z,99986.46
2018-01-10T09:42:11.223Z,99982.89
2018-01-10T09:43:13.684Z,99985.00
2018-01-10T09:44:16.145Z,99976.34
2018-01-10T09:45:18.618Z,99984.30
2018-01-10T09:46:21.076Z,99981.77
2018-01-10T09:47:23.548Z,99982.45
2018-01-10T09:48:25.994Z,99979.72
2018-01-10T09:49:28.445Z,99979.22
2018-01-10T09:50:30.985Z,99970.35
2018-01-10T09:51:33.464Z,99978.45
2018-01-10T09:52:35.926Z,99973.41
2018-01-10T09:53:38.365Z,99977.78
2018-01-10T09:54:40.828Z,99973.02
2018-01-10T09:55:43.312Z,99974.33
2018-01-10T09:56:45.820Z,99980.27
2018-01-10T09:57:48.277Z,99980.84
2018-01-10T09:58:50.738Z,99977.75
2018-01-10T09:59:53.204Z,99981.09
2018-01-10T10:00:55.674Z,99975.11
2018-01-10T10:01:58.136Z,99975.81
2018-01-10T10:03:00.594Z,99977.58
2018-01-10T10:04:03.064Z,99974.12
2018-01-10T10:05:05.545Z,99972.02
2018-01-10T10:06:08.049Z,99971.41
2018-01-10T10:07:10.503Z,99976.81
2018-01-10T10:08:12.964Z,99977.10
2018-01-10T10:09:15.432Z,99976.83
2018-01-10T10:10:17.878Z,99974.74
2018-01-10T10:11:20.351Z,99972.66
2018-01-10T10:12:22.793Z,99984.10
2018-01-10T10:13:25.256Z,99983.77
2018-01-10T10:14:27.717Z,99975.63
2018-01-10T10:15:30.178Z,99978.53
2018-01-10T10:16:32.643Z,99976.77
2018-01-10T10:17:35.104Z,99978.41
2018-01-10T10:18:37.550Z,99977.27
2018-01-10T10:19:40.010Z,99973.91
2018-01-10T10:20:42.454Z,99971.64
2018-01-10T10:21:44.948Z,99972.45
2018-01-10T10:22:47.412Z,99971.46
2018-01-10T10:23:49.860Z,99971.41
2018-01-10T10:24:52.313Z,99968.39
2018-01-10T10:25:54.767Z,99970.78
2018-01-10T10:26:57.243Z,99965.13
2018-01-10T10:27:59.705Z,99963.84
2018-01-10T10:29:02.168Z,99969.01
2018-01-10T10:30:04.648Z,99962.89
2018-01-10T10:31:07.112Z,99963.30
2018-01-10T10:32:09.934Z,99970.07
2018-01-10T10:33:12.378Z,99966.70
2018-01-10T10:34:14.847Z,99958.66
2018-01-10T10:35:18.138Z,99960.76
2018-01-10T10:36:20.786Z,99960.06
2018-01-10T10:37:23.282Z,99960.76
2018-01-10T10:38:25.749Z,99965.72
2018-01-10T10:39:28.209Z,99959.66
2018-01-10T10:40:30.661Z,99953.36
2018-01-10T10:41:33.113Z,99949.67
2018-01-10T10:42:35.606Z,99951.94
2018-01-10T10:43:38.053Z,99948.61
2018-01-10T10:44:40.537Z,99951.65
2018-01-10T10:45:43.000Z,99954.77
2018-01-10T10:46:45.446Z,99952.05
2018-01-10T10:47:47.928Z,99950.73
2018-01-10T10:48:50.375Z,99952.23
2018-01-10T10:49:52.826Z,99950.88
2018-01-10T10:50:55.273Z,99945.95
2018-01-10T10:51:57.737Z,99944.74
2018-01-10T10:53:00.202Z,99941.22
2018-01-10T10:54:02.645Z,99939.09
2018-01-10T10:55:05.094Z,99938.46
2018-01-10T10:56:07.547Z,99938.27
2018-01-10T10:57:10.013Z,99934.72
2018-01-10T10:58:12.496Z,99932.31
2018-01-10T10:59:14.946Z,99932.31
2018-01-10T11:00:17.413Z,99933.66
2018-01-10T11:01:19.873Z,99932.87
2018-01-10T11:02:23.156Z,99931.91
2018-01-10T11:03:25.636Z,99927.58
2018-01-10T11:04:28.086Z,99930.40
2018-01-10T11:05:30.552Z,99926.03
2018-01-10T11:06:33.013Z,99933.27
2018-01-10T11:07:35.453Z,99932.80
2018-01-10T11:08:37.936Z,99933.86
2018-01-10T11:09:40.396Z,99924.25
2018-01-10T11:10:42.852Z,99924.63
2018-01-10T11:11:45.312Z,99925.50
2018-01-10T11:12:47.763Z,99923.59
2018-01-10T11:13:50.246Z,99928.72
2018-01-10T11:14:52.705Z,99926.09
2018-01-10T11:15:55.166Z,99923.80
2018-01-10T11:16:57.646Z,99920.58
2018-01-10T11:18:00.108Z,99919.45
2018-01-10T11:19:02.570Z,99915.45
2018-01-10T11:20:05.034Z,99924.84
2018-01-10T11:21:21.817Z,99918.13
2018-01-10T11:22:24.575Z,99913.55
2018-01-10T11:23:27.026Z,99921.41
2018-01-10T11:24:29.594Z,99916.45
2018-01-10T11:25:32.046Z,99915.23
2018-01-10T11:26:34.512Z,99918.91
2018-01-10T11:27:37.017Z,99917.87
2018-01-10T11:28:42.297Z,99905.02
2018-01-10T11:29:44.773Z,99907.14
2018-01-10T11:30:47.241Z,99907.13
2018-01-10T11:31:49.739Z,99912.78
2018-01-10T11:32:52.158Z,99894.64
2018-01-10T11:33:54.601Z,99905.34
2018-01-10T11:34:57.140Z,99902.92
2018-01-10T11:35:59.594Z,99907.06
2018-01-10T11:37:02.061Z,99903.07
2018-01-10T11:38:04.525Z,99898.58
2018-01-10T11:39:06.984Z,99894.85
2018-01-10T11:40:09.451Z,99897.63
2018-01-10T11:41:11.912Z,99896.59
2018-01-10T11:42:14.357Z,99894.27
2018-01-10T11:43:16.834Z,99893.02
2018-01-10T11:44:19.282Z,99894.47
2018-01-10T11:45:21.745Z,99895.28
2018-01-10T11:46:24.194Z,99892.20
2018-01-10T11:47:26.656Z,99889.74
2018-01-10T11:48:29.141Z,99884.89
2018-01-10T11:49:32.483Z,99892.34
2018-01-10T11:50:34.973Z,99893.47
2018-01-10T11:51:37.448Z,99885.73
2018-01-10T11:52:39.894Z,99881.55
2018-01-10T11:53:42.364Z,99882.16
2018-01-10T11:54:44.849Z,99888.25
2018-01-10T11:55:47.332Z,99878.87
2018-01-10T11:56:49.796Z,99880.39
2018-01-10T11:57:52.250Z,99878.83
2018-01-10T11:58:54.702Z,99877.64
2018-01-10T11:59:57.147Z,99879.02
2018-01-10T12:00:59.653Z,99877.05
2018-01-10T12:02:02.114Z,99875.72
2018-01-10T12:03:04.562Z,99870.64
2018-01-10T12:04:07.032Z,99871.80
2018-01-10T12:05:09.492Z,99874.16
2018-01-10T12:06:11.995Z,99873.83
2018-01-10T12:07:14.452Z,99869.85
2018-01-10T12:08:16.901Z,99865.87
2018-01-10T12:09:19.345Z,99865.73
2018-01-10T12:10:21.804Z,99867.25
2018-01-10T12:11:24.265Z,99872.16
2018-01-10T12:12:26.731Z,99870.15
2018-01-10T12:13:29.194Z,99854.65
2018-01-10T12:14:31.652Z,99861.33
2018-01-10T12:15:34.095Z,99865.24